aviador You're here:

KPIB Decoded Metar

PINE BELT RGNL in MS, USA
Report Time2018-07-22 23:56:00
UTC Time2018-07-23 00:08:36
Flight Rules vfr VFR
Wind320° at 08 kt
W.Decomp.*RWY 36: 6.2 kt HW 5 kt LCW
W.Rank320° ranks 18
Current wind is above 320° avg. (6.0)
Visibility9999 m
Phenomena:N/A
Clouds:N/A
Expected CloudBase > 3,600 ft AGL from Temp-Dew spread
CeilingNone
Temp32°C (ISA +18)
Dew Point23°C (59% RH)
Heat Index36.8°C
QNH1009 hPa
Density Alt2,812 ft
Elevation299 ft
Report Wrong Elevation
Raw Report
KPIB 222356Z AUTO 32008KT 10SM CLR 32/23 A2981 RMK AO2 SLP092
T03220233 10361 20322 53001=

Extra information for KPIB:More info

Metar Taf Metar & Taf Last 4 Metars F.Rules Stats Wind Profile Meteogram Temp Stats Airport Information Weather charts Add Link Nearby VenuesMetar ALERT Operation Metar Decoded Social comments

AIRNAV info for KPIB